createdAt,value
2019-04-26T00:00:41.748Z,1.83
2019-04-26T00:03:12.355Z,2.80
2019-04-26T00:05:41.994Z,7.90
2019-04-26T00:08:11.910Z,2.40
2019-04-26T00:11:00.166Z,2.20
2019-04-26T00:13:37.066Z,4.03
2019-04-26T00:16:26.053Z,3.17
2019-04-26T00:18:55.861Z,1.67
2019-04-26T00:21:25.545Z,1.63
2019-04-26T00:23:55.671Z,7.87
2019-04-26T00:26:25.824Z,2.50
2019-04-26T00:28:55.595Z,7.00
2019-04-26T00:31:25.216Z,6.47
2019-04-26T00:33:54.892Z,6.90
2019-04-26T00:36:24.526Z,1.70
2019-04-26T00:38:55.307Z,4.37
2019-04-26T00:41:25.260Z,2.10
2019-04-26T00:43:57.077Z,3.60
2019-04-26T00:46:28.856Z,1.57
2019-04-26T00:49:01.337Z,2.40
2019-04-26T00:51:31.915Z,4.80
2019-04-26T00:54:01.881Z,6.53
2019-04-26T00:56:32.231Z,2.83
2019-04-26T00:59:02.335Z,10.90
2019-04-26T01:01:35.414Z,1.70
2019-04-26T01:04:05.795Z,3.40
2019-04-26T01:06:37.679Z,2.73
2019-04-26T01:09:07.975Z,4.30
2019-04-26T01:11:39.299Z,8.93
2019-04-26T01:14:08.916Z,1.73
2019-04-26T01:16:38.916Z,2.87
2019-04-26T01:19:10.956Z,4.47
2019-04-26T01:21:46.040Z,5.40
2019-04-26T01:24:18.297Z,3.07
2019-04-26T01:26:51.163Z,2.77
2019-04-26T01:29:22.036Z,2.13
2019-04-26T01:32:04.011Z,3.13
2019-04-26T01:34:34.380Z,2.27
2019-04-26T01:37:04.480Z,6.20
2019-04-26T01:39:37.656Z,3.37
2019-04-26T01:42:30.299Z,3.53
2019-04-26T01:45:14.576Z,3.17
2019-04-26T01:47:46.724Z,3.60
2019-04-26T01:50:16.717Z,9.70
2019-04-26T01:52:47.748Z,2.40
2019-04-26T01:55:17.923Z,2.50
2019-04-26T01:57:47.695Z,2.10
2019-04-26T02:00:39.584Z,1.40
2019-04-26T02:03:19.536Z,1.70
2019-04-26T02:05:49.430Z,1.67
2019-04-26T02:08:19.474Z,2.87
2019-04-26T02:10:49.250Z,1.70
2019-04-26T02:13:19.153Z,5.80
2019-04-26T02:15:48.790Z,6.93
2019-04-26T02:18:18.531Z,1.67
2019-04-26T02:21:20.063Z,2.60
2019-04-26T02:23:56.168Z,2.30
2019-04-26T02:26:34.675Z,1.80
2019-04-26T02:29:08.326Z,1.77
2019-04-26T02:31:40.562Z,3.90
2019-04-26T02:34:11.087Z,2.37
2019-04-26T02:36:56.068Z,1.47
2019-04-26T02:39:17.927Z,1.43
2019-04-26T02:41:51.785Z,4.00
2019-04-26T02:44:29.050Z,1.60
2019-04-26T02:47:24.302Z,2.80
2019-04-26T02:49:57.492Z,2.50
2019-04-26T02:52:39.165Z,4.70
2019-04-26T02:55:16.080Z,2.77
2019-04-26T02:57:52.699Z,2.50
2019-04-26T03:00:22.470Z,2.07
2019-04-26T03:03:03.969Z,13.50
2019-04-26T03:05:39.329Z,2.13
2019-04-26T03:08:19.269Z,8.63
2019-04-26T03:11:02.142Z,5.53
2019-04-26T03:13:52.483Z,2.87
2019-04-26T03:16:41.511Z,2.30
2019-04-26T03:19:37.765Z,13.47
2019-04-26T03:22:34.903Z,1.70
2019-04-26T03:25:19.673Z,2.70
2019-04-26T03:28:04.740Z,1.80
2019-04-26T03:30:52.000Z,4.80
2019-04-26T03:33:58.158Z,7.23
2019-04-26T03:37:23.880Z,5.50
2019-04-26T03:40:11.154Z,3.70
2019-04-26T03:43:16.816Z,4.20
2019-04-26T03:46:14.871Z,7.80
2019-04-26T03:49:31.604Z,14.00
2019-04-26T03:52:26.284Z,10.10
2019-04-26T03:55:00.118Z,6.17
2019-04-26T03:57:46.145Z,3.93
2019-04-26T04:00:30.552Z,3.03
2019-04-26T04:03:29.616Z,4.43
2019-04-26T04:06:01.414Z,3.20
2019-04-26T04:08:59.732Z,4.13
2019-04-26T04:11:36.437Z,6.70
2019-04-26T04:14:13.944Z,3.50
2019-04-26T04:17:08.196Z,3.77
2019-04-26T04:20:14.932Z,3.60
2019-04-26T04:22:49.369Z,3.03
2019-04-26T04:25:26.139Z,6.77
2019-04-26T04:28:08.224Z,3.80
2019-04-26T04:30:57.183Z,6.60
2019-04-26T04:33:47.866Z,3.40
2019-04-26T04:36:25.054Z,9.00
2019-04-26T04:39:16.522Z,11.63
2019-04-26T04:42:14.134Z,13.27
2019-04-26T04:45:12.681Z,7.20
2019-04-26T04:47:59.054Z,5.67
2019-04-26T04:50:54.772Z,5.40
2019-04-26T04:53:49.722Z,4.93
2019-04-26T04:57:04.273Z,3.77
2019-04-26T04:59:48.532Z,6.00
2019-04-26T05:02:43.931Z,8.60
2019-04-26T05:05:47.357Z,5.90
2019-04-26T05:08:46.375Z,18.77
2019-04-26T05:11:35.931Z,8.60
2019-04-26T05:14:16.408Z,11.03
2019-04-26T05:17:09.425Z,11.00
2019-04-26T05:19:50.686Z,15.63
2019-04-26T05:22:41.908Z,10.90
2019-04-26T05:25:42.286Z,35.87
2019-04-26T05:28:18.942Z,14.10
2019-04-26T05:31:15.635Z,19.83
2019-04-26T05:33:59.563Z,11.70
2019-04-26T05:36:39.967Z,19.23
2019-04-26T05:39:16.931Z,12.63
2019-04-26T05:42:04.376Z,8.10
2019-04-26T05:45:07.864Z,20.00
2019-04-26T05:48:05.373Z,10.23
2019-04-26T05:50:46.178Z,12.10
2019-04-26T05:53:24.972Z,10.20
2019-04-26T05:56:13.808Z,12.87
2019-04-26T05:58:52.862Z,8.93
2019-04-26T06:01:46.377Z,5.63
2019-04-26T06:04:48.004Z,6.70
2019-04-26T06:07:50.834Z,12.70
2019-04-26T06:10:44.863Z,7.87
2019-04-26T06:13:46.411Z,10.67
2019-04-26T06:16:29.828Z,7.50
2019-04-26T06:19:14.729Z,12.53
2019-04-26T06:21:52.446Z,7.70
2019-04-26T06:24:43.929Z,10.33
2019-04-26T06:27:28.243Z,10.23
2019-04-26T06:30:16.044Z,7.17
2019-04-26T06:33:00.377Z,12.53
2019-04-26T06:35:25.829Z,4.00
2019-04-26T06:38:13.604Z,9.00
2019-04-26T06:40:53.484Z,9.03
2019-04-26T06:43:30.184Z,6.00
2019-04-26T06:46:34.939Z,6.30
2019-04-26T06:49:10.215Z,8.53
2019-04-26T06:51:42.307Z,20.13
2019-04-26T06:54:18.123Z,10.13
2019-04-26T06:57:34.560Z,9.63
2019-04-26T07:00:10.416Z,6.90
2019-04-26T07:02:57.407Z,7.73
2019-04-26T07:05:28.003Z,8.00
2019-04-26T07:08:25.473Z,10.40
2019-04-26T07:11:25.977Z,8.90
2019-04-26T07:14:09.898Z,10.37
2019-04-26T07:16:42.163Z,12.63
2019-04-26T07:19:14.665Z,15.87
2019-04-26T07:22:15.449Z,18.70
2019-04-26T07:25:09.048Z,69.63
2019-04-26T07:27:47.423Z,14.80
2019-04-26T07:30:38.783Z,13.33
2019-04-26T07:33:23.325Z,16.53
2019-04-26T07:36:10.047Z,15.13
2019-04-26T07:39:19.406Z,7.20
2019-04-26T07:42:11.668Z,7.70
2019-04-26T07:45:02.233Z,6.27
2019-04-26T07:48:12.091Z,4.50
2019-04-26T07:50:59.348Z,6.30
2019-04-26T07:53:33.403Z,14.93
2019-04-26T07:56:09.761Z,11.90
2019-04-26T07:59:11.354Z,3.20
2019-04-26T08:02:16.307Z,3.60
2019-04-26T08:04:47.611Z,4.70
2019-04-26T08:07:22.613Z,10.17
2019-04-26T08:10:06.061Z,3.70
2019-04-26T08:12:35.899Z,3.83
2019-04-26T08:15:16.139Z,6.30
2019-04-26T08:18:01.082Z,5.43
2019-04-26T08:20:37.531Z,11.80
2019-04-26T08:23:27.223Z,22.43
2019-04-26T08:25:40.624Z,13.50
2019-04-26T08:28:12.049Z,20.70
2019-04-26T08:30:44.890Z,11.73
2019-04-26T08:33:18.209Z,31.40
2019-04-26T08:35:48.960Z,10.77
2019-04-26T08:38:22.609Z,4.40
2019-04-26T08:40:51.822Z,3.67
2019-04-26T08:43:31.812Z,9.33
2019-04-26T08:46:20.887Z,3.73
2019-04-26T08:49:06.514Z,7.00
2019-04-26T08:51:36.583Z,18.73
2019-04-26T08:54:10.399Z,8.13
2019-04-26T08:56:41.809Z,7.20
2019-04-26T08:59:17.280Z,5.17
2019-04-26T09:01:53.772Z,5.73
2019-04-26T09:04:34.628Z,10.17
2019-04-26T09:07:18.952Z,9.23
2019-04-26T09:09:57.073Z,5.50
2019-04-26T09:12:23.302Z,11.10
2019-04-26T09:14:53.220Z,32.10
2019-04-26T09:17:23.276Z,11.63
2019-04-26T09:19:52.372Z,9.23
2019-04-26T09:22:39.865Z,7.37
2019-04-26T09:25:17.928Z,4.90
2019-04-26T09:27:50.860Z,11.03
2019-04-26T09:30:34.687Z,4.87
2019-04-26T09:33:17.567Z,7.27
2019-04-26T09:35:46.865Z,25.00
2019-04-26T09:38:16.033Z,20.30
2019-04-26T09:40:45.099Z,3.90
2019-04-26T09:43:36.363Z,6.80
2019-04-26T09:46:21.657Z,10.40
2019-04-26T09:49:08.736Z,4.07
2019-04-26T09:51:40.464Z,6.60
2019-04-26T09:54:09.741Z,3.60
2019-04-26T09:56:39.195Z,3.70
2019-04-26T09:59:08.288Z,7.10
2019-04-26T10:01:37.396Z,10.50
2019-04-26T10:04:06.479Z,3.20
2019-04-26T10:06:35.883Z,3.60
2019-04-26T10:09:11.444Z,3.00
2019-04-26T10:11:46.138Z,2.77
2019-04-26T10:14:18.704Z,20.17
2019-04-26T10:16:54.620Z,1.87
2019-04-26T10:19:43.283Z,5.10
2019-04-26T10:22:12.367Z,4.00
2019-04-26T10:24:41.495Z,5.73
2019-04-26T10:27:10.843Z,3.80
2019-04-26T10:29:39.931Z,6.10
2019-04-26T10:32:09.209Z,4.53
2019-04-26T10:34:38.316Z,5.20
2019-04-26T10:37:08.022Z,3.67
2019-04-26T10:39:37.266Z,7.90
2019-04-26T10:42:06.434Z,8.33
2019-04-26T10:44:39.435Z,8.23
2019-04-26T10:47:06.464Z,4.83
2019-04-26T10:49:36.556Z,7.83
2019-04-26T10:52:07.635Z,16.33
2019-04-26T10:54:41.197Z,4.80
2019-04-26T10:57:18.480Z,10.40
2019-04-26T10:59:59.036Z,8.20
2019-04-26T11:02:28.275Z,5.20
2019-04-26T11:04:57.529Z,7.23
2019-04-26T11:07:26.619Z,5.10
2019-04-26T11:09:55.747Z,36.13
2019-04-26T11:12:24.920Z,9.40
2019-04-26T11:14:56.988Z,7.03
2019-04-26T11:17:25.475Z,8.13
2019-04-26T11:19:54.556Z,9.83
2019-04-26T11:22:29.467Z,6.10
2019-04-26T11:24:55.094Z,14.03
2019-04-26T11:27:24.277Z,7.43
2019-04-26T11:29:54.192Z,8.33
2019-04-26T11:32:23.596Z,9.20
2019-04-26T11:34:54.569Z,6.60
2019-04-26T11:37:23.472Z,6.07
2019-04-26T11:39:52.584Z,11.53
2019-04-26T11:42:21.704Z,5.83
2019-04-26T11:44:50.805Z,6.70
2019-04-26T11:47:19.900Z,9.17
2019-04-26T11:49:50.055Z,7.97
2019-04-26T11:52:19.464Z,10.33
2019-04-26T11:54:51.222Z,6.77
2019-04-26T11:57:19.333Z,6.07
2019-04-26T11:59:48.428Z,11.70
2019-04-26T12:02:17.575Z,6.90
2019-04-26T12:05:04.516Z,8.27
2019-04-26T12:07:37.687Z,7.50
2019-04-26T12:10:09.775Z,7.23
2019-04-26T12:12:37.849Z,8.10
2019-04-26T12:15:08.629Z,8.40
2019-04-26T12:17:37.800Z,9.80
2019-04-26T12:20:07.176Z,8.90
2019-04-26T12:22:39.324Z,6.30
2019-04-26T12:25:08.367Z,4.80
2019-04-26T12:27:37.794Z,4.80
2019-04-26T12:30:07.664Z,9.10
2019-04-26T12:32:36.752Z,5.50
2019-04-26T12:35:05.898Z,10.87
2019-04-26T12:37:35.095Z,19.57
2019-04-26T12:40:07.250Z,5.13
2019-04-26T12:42:36.651Z,6.47
2019-04-26T12:45:25.878Z,4.73
2019-04-26T12:47:57.856Z,8.03
2019-04-26T12:50:29.538Z,16.63
2019-04-26T12:52:58.157Z,6.10
2019-04-26T12:55:27.238Z,5.30
2019-04-26T12:57:56.340Z,12.63
2019-04-26T13:00:33.086Z,5.73
2019-04-26T13:03:01.262Z,5.23
2019-04-26T13:05:30.372Z,3.90
2019-04-26T13:07:59.639Z,4.40
2019-04-26T13:10:53.811Z,4.80
2019-04-26T13:13:27.047Z,5.77
2019-04-26T13:16:15.351Z,5.73
2019-04-26T13:18:45.667Z,3.60
2019-04-26T13:21:15.657Z,3.37
2019-04-26T13:23:44.789Z,6.57
2019-04-26T13:26:14.160Z,5.10
2019-04-26T13:28:43.256Z,2.87
2019-04-26T13:31:12.323Z,3.77
2019-04-26T13:33:41.497Z,7.07
2019-04-26T13:36:10.636Z,6.30
2019-04-26T13:38:43.605Z,5.83
2019-04-26T13:41:11.693Z,4.50
2019-04-26T13:43:40.787Z,5.43
2019-04-26T13:46:44.199Z,5.00
2019-04-26T13:49:21.089Z,7.00
2019-04-26T13:51:50.166Z,10.83
2019-04-26T13:54:21.077Z,12.73
2019-04-26T13:56:51.194Z,5.77
2019-04-26T13:59:20.280Z,6.87
2019-04-26T14:01:49.373Z,6.97
2019-04-26T14:04:22.400Z,7.23
2019-04-26T14:06:51.677Z,13.47
2019-04-26T14:09:20.870Z,13.03
2019-04-26T14:11:50.013Z,14.50
2019-04-26T14:14:19.127Z,10.40
2019-04-26T14:16:48.228Z,10.33
2019-04-26T14:19:17.431Z,12.53
2019-04-26T14:21:46.995Z,14.97
2019-04-26T14:24:39.740Z,14.93
2019-04-26T14:27:15.303Z,12.23
2019-04-26T14:29:45.869Z,7.60
2019-04-26T14:32:15.136Z,11.30
2019-04-26T14:34:45.273Z,9.10
2019-04-26T14:37:16.618Z,12.13
2019-04-26T14:39:50.642Z,12.40
2019-04-26T14:42:16.959Z,17.50
2019-04-26T14:44:49.640Z,9.10
2019-04-26T14:47:18.110Z,8.60
2019-04-26T14:49:47.654Z,9.43
2019-04-26T14:52:16.813Z,12.60
2019-04-26T14:54:47.464Z,9.70
2019-04-26T14:57:23.743Z,6.93
2019-04-26T14:59:52.799Z,6.80
2019-04-26T15:02:41.668Z,13.30
2019-04-26T15:05:38.139Z,6.43
2019-04-26T15:08:09.747Z,11.60
2019-04-26T15:10:45.679Z,6.30
2019-04-26T15:13:17.182Z,13.30
2019-04-26T15:15:42.246Z,7.73
2019-04-26T15:18:12.275Z,6.03
2019-04-26T15:20:41.630Z,5.43
2019-04-26T15:23:10.760Z,5.00
2019-04-26T15:25:41.377Z,8.13
2019-04-26T15:28:14.461Z,4.60
2019-04-26T15:30:46.670Z,18.90
2019-04-26T15:33:14.036Z,6.70
2019-04-26T15:35:44.981Z,7.07
2019-04-26T15:38:14.121Z,8.60
2019-04-26T15:41:05.440Z,3.90
2019-04-26T15:43:46.748Z,5.77
2019-04-26T15:46:33.517Z,6.70
2019-04-26T15:49:22.469Z,3.40
2019-04-26T15:51:56.347Z,3.00
2019-04-26T15:54:23.668Z,6.40
2019-04-26T15:56:53.914Z,2.47
2019-04-26T15:59:25.455Z,2.63
2019-04-26T16:01:56.427Z,1.90
2019-04-26T16:04:25.659Z,4.60
2019-04-26T16:06:54.885Z,2.10
2019-04-26T16:09:24.066Z,2.37
2019-04-26T16:11:55.266Z,3.27
2019-04-26T16:14:26.360Z,2.77
2019-04-26T16:16:58.396Z,4.40
2019-04-26T16:19:26.704Z,1.80
2019-04-26T16:21:56.251Z,1.83
2019-04-26T16:24:27.863Z,4.70
2019-04-26T16:26:56.359Z,3.00
2019-04-26T16:29:38.308Z,1.80
2019-04-26T16:32:32.549Z,8.13
2019-04-26T16:35:02.941Z,3.40
2019-04-26T16:37:33.109Z,3.00
2019-04-26T16:40:07.783Z,5.37
2019-04-26T16:42:35.684Z,2.50
2019-04-26T16:45:07.697Z,2.03
2019-04-26T16:47:45.162Z,5.97
2019-04-26T16:50:07.413Z,2.57
2019-04-26T16:52:42.348Z,2.40
2019-04-26T16:55:17.905Z,1.90
2019-04-26T16:57:43.915Z,4.83
2019-04-26T17:00:09.959Z,3.90
2019-04-26T17:02:39.202Z,2.03
2019-04-26T17:07:39.505Z,8.07
2019-04-26T17:09:51.125Z,3.70
2019-04-26T17:10:08.821Z,2.87
2019-04-26T17:12:37.985Z,2.60
2019-04-26T17:15:07.460Z,2.77
2019-04-26T17:17:36.574Z,6.57
2019-04-26T17:20:06.578Z,2.20
2019-04-26T17:22:57.039Z,1.80
2019-04-26T17:25:46.492Z,3.27
2019-04-26T17:28:17.891Z,3.10
2019-04-26T17:30:46.380Z,4.97
2019-04-26T17:33:15.502Z,2.30
2019-04-26T17:35:44.578Z,4.47
2019-04-26T17:38:13.678Z,4.17
2019-04-26T17:40:42.827Z,4.57
2019-04-26T17:43:13.294Z,5.17
2019-04-26T17:45:44.131Z,8.17
2019-04-26T17:48:14.125Z,8.90
2019-04-26T17:50:43.552Z,3.70
2019-04-26T17:53:25.761Z,6.40
2019-04-26T17:55:45.905Z,4.80
2019-04-26T17:58:17.766Z,4.90
2019-04-26T18:00:47.052Z,4.47
2019-04-26T18:03:16.478Z,4.20
2019-04-26T18:05:56.688Z,5.60
2019-04-26T18:08:35.801Z,5.40
2019-04-26T18:10:48.448Z,9.63
2019-04-26T18:13:18.278Z,6.20
2019-04-26T18:15:48.566Z,12.90
2019-04-26T18:18:36.218Z,6.90
2019-04-26T18:21:26.797Z,7.43
2019-04-26T18:23:57.242Z,7.57
2019-04-26T18:26:27.132Z,7.53
2019-04-26T18:28:57.096Z,10.83
2019-04-26T18:31:28.816Z,10.77
2019-04-26T18:34:00.657Z,11.03
2019-04-26T18:36:32.022Z,11.90
2019-04-26T18:39:03.733Z,11.77
2019-04-26T18:41:34.659Z,12.93
2019-04-26T18:44:05.189Z,14.07
2019-04-26T18:46:53.574Z,14.80
2019-04-26T18:49:26.966Z,14.10
2019-04-26T18:51:56.604Z,17.23
2019-04-26T18:54:47.862Z,14.27
2019-04-26T18:57:17.187Z,18.90
2019-04-26T18:59:51.523Z,12.63
2019-04-26T19:02:20.251Z,13.50
2019-04-26T19:04:49.871Z,14.40
2019-04-26T19:07:31.293Z,12.07
2019-04-26T19:10:02.860Z,12.57
2019-04-26T19:12:26.964Z,12.80
2019-04-26T19:15:07.529Z,14.57
2019-04-26T19:17:55.584Z,14.17
2019-04-26T19:20:32.719Z,14.83
2019-04-26T19:23:03.846Z,16.47
2019-04-26T19:25:40.533Z,16.70
2019-04-26T19:28:08.061Z,17.27
2019-04-26T19:30:39.923Z,18.97
2019-04-26T19:33:11.594Z,17.97
2019-04-26T19:35:44.012Z,17.20
2019-04-26T19:38:14.633Z,17.93
2019-04-26T19:40:47.645Z,18.87
2019-04-26T19:43:27.698Z,19.87
2019-04-26T19:46:04.754Z,20.37
2019-04-26T19:48:44.851Z,23.70
2019-04-26T19:51:32.696Z,22.73
2019-04-26T19:54:12.557Z,23.27
2019-04-26T19:56:51.303Z,21.50
2019-04-26T19:59:21.678Z,30.50
2019-04-26T20:01:55.177Z,24.40
2019-04-26T20:04:30.326Z,26.73
2019-04-26T20:06:55.499Z,24.20
2019-04-26T20:09:26.542Z,25.80
2019-04-26T20:11:57.971Z,27.60
2019-04-26T20:14:43.321Z,27.73
2019-04-26T20:16:59.145Z,32.37
2019-04-26T20:19:35.107Z,29.00
2019-04-26T20:22:01.928Z,28.60
2019-04-26T20:24:32.892Z,30.70
2019-04-26T20:27:03.549Z,27.57
2019-04-26T20:29:34.606Z,27.07
2019-04-26T20:32:24.023Z,26.33
2019-04-26T20:35:26.414Z,27.50
2019-04-26T20:37:52.125Z,26.97
2019-04-26T20:40:25.532Z,33.63
2019-04-26T20:43:01.979Z,23.10
2019-04-26T20:45:38.378Z,24.63
2019-04-26T20:47:57.092Z,26.17
2019-04-26T20:50:28.614Z,24.40
2019-04-26T20:53:00.825Z,23.03
2019-04-26T20:55:34.358Z,22.57
2019-04-26T20:58:06.970Z,22.90
2019-04-26T21:00:36.511Z,23.60
2019-04-26T21:03:06.113Z,24.17
2019-04-26T21:05:45.775Z,23.93
2019-04-26T21:08:07.492Z,25.30
2019-04-26T21:10:37.106Z,23.70
2019-04-26T21:13:06.745Z,25.77
2019-04-26T21:15:36.348Z,26.20
2019-04-26T21:18:06.034Z,25.93
2019-04-26T21:20:36.556Z,25.30
2019-04-26T21:23:06.454Z,25.80
2019-04-26T21:25:45.992Z,23.30
2019-04-26T21:28:22.181Z,27.40
2019-04-26T21:31:03.385Z,25.90
2019-04-26T21:33:38.988Z,26.10
2019-04-26T21:36:34.670Z,27.90
2019-04-26T21:39:23.416Z,25.53
2019-04-26T21:41:53.363Z,25.87
2019-04-26T21:44:22.963Z,27.20
2019-04-26T21:46:56.259Z,26.67
2019-04-26T21:49:24.370Z,30.27
2019-04-26T21:51:54.395Z,27.30
2019-04-26T21:54:25.246Z,33.27
2019-04-26T21:56:55.053Z,28.60
2019-04-26T21:59:24.677Z,28.77
2019-04-26T22:01:59.065Z,29.80
2019-04-26T22:04:28.837Z,30.57
2019-04-26T22:06:59.837Z,31.87
2019-04-26T22:09:46.159Z,29.07
2019-04-26T22:12:16.536Z,30.30
2019-04-26T22:14:50.791Z,29.07
2019-04-26T22:17:35.651Z,29.00
2019-04-26T22:20:13.084Z,31.73
2019-04-26T22:22:49.363Z,29.53
2019-04-26T22:25:20.792Z,31.27
2019-04-26T22:27:54.018Z,29.93
2019-04-26T22:30:28.261Z,31.37
2019-04-26T22:32:58.704Z,39.43
2019-04-26T22:35:28.381Z,29.97
2019-04-26T22:37:58.017Z,32.50
2019-04-26T22:40:27.983Z,30.90
2019-04-26T22:43:22.972Z,33.97
2019-04-26T22:46:02.904Z,30.63
2019-04-26T22:48:34.848Z,34.33
2019-04-26T22:51:04.796Z,32.13
2019-04-26T22:53:34.544Z,34.23
2019-04-26T22:56:05.224Z,31.07
2019-04-26T22:58:35.888Z,33.07
2019-04-26T23:01:06.333Z,31.93
2019-04-26T23:03:36.741Z,33.37
2019-04-26T23:06:11.634Z,34.07
2019-04-26T23:08:39.508Z,31.80
2019-04-26T23:11:10.699Z,32.70
2019-04-26T23:14:01.240Z,34.00
2019-04-26T23:17:01.483Z,36.43
2019-04-26T23:19:44.732Z,33.20
2019-04-26T23:22:14.442Z,33.53
2019-04-26T23:24:44.882Z,34.80
2019-04-26T23:27:20.497Z,36.97
2019-04-26T23:29:49.832Z,35.53
2019-04-26T23:32:20.005Z,37.23
2019-04-26T23:34:49.421Z,35.50
2019-04-26T23:37:19.375Z,37.60
2019-04-26T23:39:51.119Z,33.57
2019-04-26T23:42:20.955Z,34.87
2019-04-26T23:44:50.572Z,34.30
2019-04-26T23:47:22.981Z,35.67
2019-04-26T23:49:53.817Z,33.03
2019-04-26T23:52:24.489Z,36.17
2019-04-26T23:54:54.283Z,35.47
2019-04-26T23:57:27.332Z,34.07
2019-04-26T23:59:56.529Z,38.40
